Terminal Aerodrome Forecast
Issued by NWS Knoxville/Tri Cities, TN

Home | Current Version | Previous Version | Text Only | Print | Product List | Glossary On
Versions: 1 2 3 4 5 6 7 8 9 10 11 12
000
FTUS44 KMRX 222330
TAFTYS
TAF
KTYS 222330Z 2300/2324 08009KT 6SM -RA SCT045 OVC070
     FM230800 06012G20KT 4SM -RA BR OVC050
     FM231500 07015G24KT P6SM VCSH OVC050
     FM232300 05008KT 6SM -RA BR OVC040=

USA.gov is the U.S. government's official web portal to all federal, state and local government web resources and services.